Time;durP1;ratioP1;P1;durP2;ratioP2;P2;SDS_P1;SDS_P2;PMS_P1;PMS_P2;Temp;Humidity;BMP_temperature;BMP_pressure;BME280_temperature;BME280_humidity;BME280_pressure;Samples;Min_cycle;Max_cycle;Signal;HPM_P1;HPM_P2
2022/01/18 00:00:18;;;;;;;20.85;15.55;;;3.00;70.80;;;;;;5070360;28;20043;-79
2022/01/18 00:02:45;;;;;;;21.67;15.85;;;3.00;70.80;;;;;;5068380;28;20034;-80
2022/01/18 00:05:14;;;;;;;23.85;15.63;;;3.00;70.70;;;;;;5069243;28;20028;-80
2022/01/18 00:07:41;;;;;;;21.63;15.75;;;3.00;70.80;;;;;;5069275;28;20056;-80
2022/01/18 00:10:07;;;;;;;21.77;15.02;;;3.00;70.80;;;;;;5068429;28;20068;-80
2022/01/18 00:20:43;;;;;;;19.52;14.52;;;2.90;70.60;;;;;;5049281;28;20376;-79
2022/01/18 00:23:10;;;;;;;19.17;14.43;;;2.90;70.60;;;;;;5050840;28;20033;-79
2022/01/18 00:25:43;;;;;;;25.10;17.33;;;2.90;70.60;;;;;;5052085;28;20033;-79
2022/01/18 00:28:09;;;;;;;20.38;15.90;;;2.80;70.50;;;;;;5053602;28;20029;-79
2022/01/18 00:35:43;;;;;;;;;;;2.80;70.50;;;;;;5070363;28;20103;-78
2022/01/18 00:38:27;;;;;;;22.02;16.40;;;2.70;70.20;;;;;;5086395;28;19910;-78
2022/01/18 00:40:54;;;;;;;19.80;14.82;;;2.80;70.40;;;;;;5069802;28;20111;-79
2022/01/18 00:43:20;;;;;;;23.27;16.55;;;2.70;70.20;;;;;;5069532;28;20051;-80
2022/01/18 00:45:46;;;;;;;24.63;16.58;;;2.70;70.20;;;;;;5086592;28;20036;-80
2022/01/18 00:48:12;;;;;;;24.40;15.82;;;2.70;70.20;;;;;;5069036;28;20024;-79
2022/01/18 00:50:38;;;;;;;22.60;16.02;;;2.70;70.30;;;;;;5070804;28;20028;-78
2022/01/18 00:53:12;;;;;;;22.77;17.20;;;2.70;70.30;;;;;;5052673;28;20559;-79
2022/01/18 00:55:49;;;;;;;22.67;16.60;;;2.70;70.30;;;;;;5070320;28;20064;-79
2022/01/18 00:58:15;;;;;;;23.17;15.57;;;2.70;70.30;;;;;;5052268;28;20525;-81
2022/01/18 01:00:41;;;;;;;20.75;15.48;;;2.60;70.10;;;;;;5070876;28;20076;-80
2022/01/18 01:03:07;;;;;;;22.23;15.68;;;2.60;70.10;;;;;;5069309;28;20032;-80
2022/01/18 01:05:34;;;;;;;24.27;16.52;;;2.60;70.10;;;;;;5068731;28;20024;-79
2022/01/18 01:08:02;;;;;;;23.73;15.25;;;2.60;70.10;;;;;;5069012;28;20111;-78
2022/01/18 01:10:29;;;;;;;20.77;16.73;;;2.60;70.10;;;;;;5069983;28;20500;-81
2022/01/18 01:12:55;;;;;;;22.92;17.23;;;2.60;70.10;;;;;;5069167;28;20118;-80
2022/01/18 01:15:24;;;;;;;24.08;17.50;;;2.60;70.10;;;;;;5069154;28;20472;-81
2022/01/18 01:18:07;;;;;;;22.20;17.50;;;2.60;70.10;;;;;;5069375;28;20032;-81
2022/01/18 01:45:19;;;;;;;22.02;16.75;;;2.40;69.70;;;;;;5068870;28;20388;-79
2022/01/18 01:47:50;;;;;;;20.67;15.57;;;2.40;69.80;;;;;;5068867;28;20375;-79
2022/01/18 01:50:19;;;;;;;22.27;15.88;;;2.40;69.80;;;;;;5069683;28;20641;-80
2022/01/18 01:52:50;;;;;;;22.05;17.08;;;2.40;69.80;;;;;;5068630;28;20487;-79
2022/01/18 01:55:18;;;;;;;24.10;17.70;;;2.30;69.60;;;;;;5068615;28;20032;-79
2022/01/18 01:57:45;;;;;;;25.08;17.45;;;2.40;69.80;;;;;;5069634;28;20024;-78
2022/01/18 02:00:21;;;;;;;23.67;16.88;;;2.30;69.60;;;;;;5070792;28;20539;-79
2022/01/18 02:02:47;;;;;;;27.75;17.35;;;2.30;69.50;;;;;;5070029;28;20543;-79
2022/01/18 02:05:13;;;;;;;21.05;16.45;;;2.30;69.50;;;;;;5069068;28;20036;-79
2022/01/18 02:07:39;;;;;;;23.65;15.75;;;2.30;69.50;;;;;;5068206;28;20067;-80
2022/01/18 02:10:07;;;;;;;23.10;17.25;;;2.30;69.50;;;;;;5067519;28;20116;-80
2022/01/18 02:12:34;;;;;;;25.42;17.58;;;2.30;69.60;;;;;;5067934;28;20531;-80
2022/01/18 02:15:10;;;;;;;25.02;16.77;;;2.30;69.50;;;;;;5069109;28;20071;-80
2022/01/18 02:23:24;;;;;;;24.02;17.38;;;2.20;69.30;;;;;;5068592;28;20028;-79
2022/01/18 02:25:50;;;;;;;25.13;17.25;;;2.20;69.40;;;;;;5069205;28;20028;-79
2022/01/18 02:28:18;;;;;;;22.73;17.48;;;2.20;69.40;;;;;;5050315;28;20033;-78
2022/01/18 02:30:45;;;;;;;24.50;17.08;;;2.10;69.20;;;;;;5068724;28;20025;-78
2022/01/18 02:33:13;;;;;;;24.58;17.52;;;2.20;69.40;;;;;;5068314;28;20398;-79
2022/01/18 02:35:39;;;;;;;24.52;16.23;;;2.10;69.20;;;;;;5068281;28;20036;-78
2022/01/18 02:38:05;;;;;;;24.80;17.25;;;2.10;69.20;;;;;;5068382;28;20024;-78
2022/01/18 02:40:33;;;;;;;24.65;17.05;;;2.10;69.20;;;;;;5068326;28;20121;-79
2022/01/18 02:43:46;;;;;;;20.63;17.35;;;2.10;69.20;;;;;;5066917;28;20158;-79
2022/01/18 02:45:48;;;;;;;23.70;17.23;;;2.10;69.20;;;;;;5066357;28;20028;-79
2022/01/18 02:48:15;;;;;;;24.90;17.10;;;2.10;69.20;;;;;;5070458;28;20033;-79
2022/01/18 02:50:41;;;;;;;23.67;18.23;;;2.10;69.20;;;;;;5071163;28;20032;-79
2022/01/18 02:53:07;;;;;;;26.15;18.20;;;2.10;69.20;;;;;;5071291;28;20127;-79
2022/01/18 02:55:33;;;;;;;25.67;18.05;;;2.10;69.20;;;;;;5070057;28;20166;-80
2022/01/18 02:58:03;;;;;;;22.15;17.83;;;2.10;69.20;;;;;;5070162;28;20043;-80
2022/01/18 03:03:10;;;;;;;26.30;17.63;;;2.10;69.20;;;;;;5071190;28;20028;-78
2022/01/18 03:03:28;;;;;;;27.80;18.40;;;2.10;69.10;;;;;;5071334;28;20039;-80
2022/01/18 03:05:55;;;;;;;25.20;17.80;;;2.10;69.10;;;;;;5070888;28;20028;-79
2022/01/18 03:08:21;;;;;;;28.83;19.80;;;2.10;69.00;;;;;;5069618;28;20024;-79
2022/01/18 03:10:47;;;;;;;27.73;18.15;;;2.10;69.00;;;;;;5071223;28;20487;-79
2022/01/18 03:13:13;;;;;;;26.50;18.48;;;2.10;69.50;;;;;;5069494;28;20037;-79
2022/01/18 03:15:39;;;;;;;27.48;18.80;;;2.10;69.00;;;;;;5070858;28;20135;-79
2022/01/18 03:18:09;;;;;;;26.67;19.05;;;2.10;69.00;;;;;;5070788;28;20028;-79
2022/01/18 03:20:36;;;;;;;31.00;18.45;;;2.10;69.00;;;;;;5069379;28;20098;-79
2022/01/18 03:23:07;;;;;;;29.58;20.08;;;2.10;69.00;;;;;;5070705;28;20028;-79
2022/01/18 03:28:05;;;;;;;27.15;19.55;;;2.10;69.00;;;;;;5070855;28;20040;-79
2022/01/18 03:30:36;;;;;;;27.00;19.15;;;2.10;69.00;;;;;;5071158;28;20036;-79
2022/01/18 03:33:04;;;;;;;29.38;19.90;;;2.20;69.20;;;;;;5070540;28;20456;-79
2022/01/18 03:35:30;;;;;;;28.42;19.13;;;2.20;69.20;;;;;;5070866;28;20052;-80
2022/01/18 03:37:56;;;;;;;30.30;20.15;;;2.10;69.00;;;;;;5069337;28;20048;-79
2022/01/18 03:40:24;;;;;;;26.27;18.83;;;2.10;69.00;;;;;;5070555;28;20031;-80
2022/01/18 03:42:52;;;;;;;28.20;18.88;;;2.10;69.00;;;;;;5069445;28;20373;-80
2022/01/18 03:45:23;;;;;;;25.58;19.48;;;2.10;69.00;;;;;;5070294;28;20117;-80
2022/01/18 03:47:50;;;;;;;26.17;18.83;;;2.20;69.20;;;;;;5070326;28;20392;-81
2022/01/18 03:50:17;;;;;;;30.25;19.60;;;2.20;69.20;;;;;;5070322;28;20434;-80
2022/01/18 03:52:45;;;;;;;30.40;20.02;;;2.10;69.00;;;;;;5069477;28;20097;-79
2022/01/18 03:55:13;;;;;;;26.58;19.67;;;2.10;69.00;;;;;;5069675;28;20024;-80
2022/01/18 03:57:39;;;;;;;27.27;19.60;;;2.20;69.20;;;;;;5070559;28;20028;-80
2022/01/18 04:00:15;;;;;;;30.45;20.63;;;2.20;69.20;;;;;;5070498;28;20027;-79
2022/01/18 04:02:41;;;;;;;29.00;19.75;;;2.20;69.20;;;;;;5069587;28;20029;-79
2022/01/18 04:05:08;;;;;;;29.25;19.48;;;2.20;69.10;;;;;;5069471;28;20139;-79
2022/01/18 04:07:34;;;;;;;28.27;19.85;;;2.20;69.20;;;;;;5070364;28;20028;-80
2022/01/18 04:10:00;;;;;;;30.60;20.00;;;2.20;69.10;;;;;;5072064;28;20395;-80
2022/01/18 04:12:26;;;;;;;29.13;20.23;;;2.20;69.10;;;;;;5071933;28;20072;-79
2022/01/18 04:14:54;;;;;;;32.45;20.33;;;2.20;69.10;;;;;;5073585;28;20483;-80
2022/01/18 04:28:36;;;;;;;27.52;20.30;;;2.20;69.10;;;;;;5071781;28;20028;-79
2022/01/18 04:30:55;;;;;;;26.92;19.42;;;2.20;69.10;;;;;;5070757;28;20068;-80
2022/01/18 04:33:21;;;;;;;27.63;18.98;;;2.20;69.10;;;;;;5069392;28;20044;-79
2022/01/18 04:35:47;;;;;;;27.05;19.50;;;2.20;69.10;;;;;;5070615;28;20476;-80
2022/01/18 04:38:14;;;;;;;28.67;19.45;;;2.20;69.10;;;;;;5069643;28;20033;-80
2022/01/18 04:40:43;;;;;;;28.05;18.58;;;2.20;69.10;;;;;;5071212;28;20090;-80
2022/01/18 04:48:35;;;;;;;31.55;18.80;;;2.20;69.10;;;;;;5069029;28;20024;-79
2022/01/18 04:51:08;;;;;;;29.02;19.02;;;2.20;69.10;;;;;;5069025;28;20082;-80
2022/01/18 04:53:41;;;;;;;28.60;19.13;;;2.20;69.10;;;;;;5069468;28;20441;-79
2022/01/18 04:56:13;;;;;;;29.70;20.20;;;2.20;69.10;;;;;;5069937;28;20067;-79
2022/01/18 04:58:40;;;;;;;26.05;18.75;;;2.20;69.10;;;;;;5068715;28;20037;-80
2022/01/18 05:01:08;;;;;;;30.42;19.02;;;2.20;69.10;;;;;;5068841;28;20050;-79
2022/01/18 05:03:34;;;;;;;25.52;20.17;;;2.20;69.10;;;;;;5069316;28;20063;-80
2022/01/18 05:06:08;;;;;;;26.42;18.38;;;2.20;69.10;;;;;;5069679;28;20422;-80
2022/01/18 05:08:35;;;;;;;25.20;18.55;;;2.20;69.10;;;;;;5072203;28;20097;-79
2022/01/18 05:11:02;;;;;;;28.17;18.35;;;2.20;69.10;;;;;;5073177;28;20475;-80
2022/01/18 05:21:35;;;;;;;29.85;20.35;;;2.20;69.10;;;;;;5071669;28;20048;-79
2022/01/18 05:24:02;;;;;;;27.10;17.85;;;2.10;69.00;;;;;;5072198;28;20050;-80
2022/01/18 05:26:29;;;;;;;26.60;19.38;;;2.10;69.00;;;;;;5071865;28;20028;-80
2022/01/18 05:28:59;;;;;;;27.73;18.95;;;2.20;69.10;;;;;;5071759;28;20468;-79
2022/01/18 05:31:25;;;;;;;26.48;18.70;;;2.10;69.00;;;;;;5038557;28;20032;-79
2022/01/18 05:33:53;;;;;;;27.85;19.38;;;2.10;69.00;;;;;;5055089;28;20387;-79
2022/01/18 05:36:19;;;;;;;30.75;19.95;;;2.10;69.00;;;;;;5070407;28;20017;-79
2022/01/18 05:38:45;;;;;;;26.95;19.40;;;2.10;69.00;;;;;;5071610;28;20036;-79
2022/01/18 05:41:11;;;;;;;25.73;19.63;;;2.10;69.00;;;;;;5072862;28;20067;-80
2022/01/18 05:43:38;;;;;;;26.98;18.90;;;2.10;69.00;;;;;;5072577;28;20040;-79
2022/01/18 05:46:10;;;;;;;26.98;18.50;;;2.10;69.00;;;;;;5071163;28;20040;-80
2022/01/18 05:48:36;;;;;;;25.08;17.52;;;2.10;69.00;;;;;;5068667;28;20028;-80
2022/01/18 05:51:02;;;;;;;27.35;18.52;;;2.10;69.00;;;;;;5069191;28;20059;-80
2022/01/18 05:53:35;;;;;;;30.25;19.02;;;2.10;69.00;;;;;;5067536;28;20025;-79
2022/01/18 05:56:04;;;;;;;28.52;18.92;;;2.10;69.00;;;;;;5057130;28;20039;-80
2022/01/18 05:58:30;;;;;;;28.90;19.63;;;2.10;69.00;;;;;;5068209;28;20017;-79
2022/01/18 06:00:56;;;;;;;27.60;17.88;;;2.20;69.20;;;;;;5067540;28;20128;-81
2022/01/18 06:03:28;;;;;;;26.85;18.00;;;2.10;69.00;;;;;;5066205;28;20077;-79
2022/01/18 06:08:42;;;;;;;24.15;17.58;;;2.10;69.00;;;;;;5063977;28;20367;-79
2022/01/18 06:11:09;;;;;;;28.33;18.83;;;2.10;69.00;;;;;;5064557;28;20060;-79
2022/01/18 06:13:38;;;;;;;26.90;18.88;;;2.20;69.10;;;;;;5067100;28;20028;-80
2022/01/18 06:16:06;;;;;;;26.10;17.92;;;2.10;68.90;;;;;;5063640;28;20031;-81
2022/01/18 06:18:32;;;;;;;24.65;18.17;;;2.10;68.90;;;;;;5058468;28;20025;-80
2022/01/18 06:20:59;;;;;;;25.98;17.73;;;2.20;69.10;;;;;;5066627;28;20075;-79
2022/01/18 06:23:25;;;;;;;22.48;17.30;;;2.20;69.10;;;;;;5068530;28;20051;-78
2022/01/18 06:25:51;;;;;;;27.55;19.42;;;2.10;68.90;;;;;;5066032;28;20037;-85
2022/01/18 06:28:17;;;;;;;28.00;18.85;;;2.20;69.10;;;;;;5063139;28;20365;-82
2022/01/18 06:30:43;;;;;;;29.50;18.70;;;2.20;69.10;;;;;;5058190;28;20117;-81
2022/01/18 06:33:09;;;;;;;23.48;17.65;;;2.20;69.10;;;;;;5056690;28;20418;-86
2022/01/18 06:35:35;;;;;;;28.42;19.33;;;2.20;69.10;;;;;;5068760;28;20116;-91
2022/01/18 06:38:02;;;;;;;25.98;17.73;;;2.20;69.10;;;;;;5064998;28;20043;-83
2022/01/18 06:40:27;;;;;;;23.55;17.65;;;2.20;69.10;;;;;;5066347;28;20028;-85
2022/01/18 06:42:53;;;;;;;24.48;17.92;;;2.20;69.10;;;;;;5063771;28;20444;-85
2022/01/18 06:45:39;;;;;;;27.88;17.42;;;2.10;68.90;;;;;;5059968;28;20044;-84
2022/01/18 06:48:25;;;;;;;24.92;17.13;;;2.10;68.90;;;;;;5067064;28;20029;-89
2022/01/18 06:51:11;;;;;;;27.92;16.75;;;2.20;69.10;;;;;;5061960;28;20406;-85
2022/01/18 06:53:44;;;;;;;26.10;16.98;;;2.10;68.90;;;;;;5064553;28;20167;-81
2022/01/18 06:56:10;;;;;;;28.90;19.08;;;2.10;68.90;;;;;;5062393;28;20029;-88
2022/01/18 06:58:36;;;;;;;26.60;18.63;;;2.20;69.30;;;;;;5057488;28;20033;-84
2022/01/18 07:01:02;;;;;;;26.25;17.85;;;2.20;69.30;;;;;;5066832;28;20082;-84
2022/01/18 07:03:28;;;;;;;26.73;17.38;;;2.30;69.50;;;;;;5068188;28;20048;-84
2022/01/18 07:05:54;;;;;;;25.90;17.50;;;2.30;69.40;;;;;;5068189;28;20123;-88
2022/01/18 07:08:20;;;;;;;26.58;17.90;;;2.30;69.30;;;;;;5066310;28;20392;-88
2022/01/18 07:10:46;;;;;;;24.85;17.77;;;2.30;69.30;;;;;;5062144;28;20033;-85
2022/01/18 07:13:14;;;;;;;27.45;17.67;;;2.30;69.20;;;;;;5066619;28;20040;-87
2022/01/18 07:15:41;;;;;;;28.17;18.10;;;2.30;69.20;;;;;;5067115;28;20024;-83
2022/01/18 07:18:08;;;;;;;26.83;18.63;;;2.30;69.20;;;;;;5067809;28;20178;-86
2022/01/18 07:20:34;;;;;;;27.85;18.40;;;2.30;69.30;;;;;;5066424;28;20067;-87
2022/01/18 07:23:01;;;;;;;26.02;16.83;;;2.30;69.30;;;;;;5068433;28;20444;-84
2022/01/18 07:25:27;;;;;;;28.20;18.60;;;2.30;69.30;;;;;;5067048;28;20086;-86
2022/01/18 07:27:53;;;;;;;23.17;17.05;;;2.30;69.30;;;;;;5060992;28;20051;-83
2022/01/18 07:30:19;;;;;;;23.02;17.27;;;2.30;69.40;;;;;;5056024;28;20032;-81
2022/01/18 07:32:45;;;;;;;26.42;18.13;;;2.30;69.40;;;;;;5065245;28;20040;-83
2022/01/18 07:35:12;;;;;;;23.88;16.60;;;2.30;69.40;;;;;;5065982;28;20020;-84
2022/01/18 07:37:38;;;;;;;25.63;16.30;;;2.30;69.40;;;;;;5067808;28;20134;-83
2022/01/18 07:40:06;;;;;;;24.75;17.13;;;2.30;69.40;;;;;;5054198;28;20055;-80
2022/01/18 07:42:32;;;;;;;24.83;17.42;;;2.30;69.40;;;;;;5047826;28;20455;-81
2022/01/18 07:44:58;;;;;;;24.40;17.80;;;2.20;69.20;;;;;;5047808;28;20036;-82
2022/01/18 07:47:24;;;;;;;25.38;17.58;;;2.20;69.20;;;;;;5047808;28;20045;-82
2022/01/18 07:49:51;;;;;;;24.40;17.95;;;2.30;69.40;;;;;;5045597;28;20040;-81
2022/01/18 07:52:17;;;;;;;25.30;18.15;;;2.30;69.40;;;;;;5047109;28;20120;-83
2022/01/18 07:54:44;;;;;;;24.85;17.23;;;2.30;69.40;;;;;;5066475;28;20484;-83
2022/01/18 07:57:11;;;;;;;23.65;16.48;;;2.30;69.40;;;;;;5067399;28;20032;-83
2022/01/18 07:59:37;;;;;;;24.88;17.15;;;2.30;69.40;;;;;;5066184;28;20077;-84
2022/01/18 08:02:04;;;;;;;22.98;16.85;;;2.40;69.50;;;;;;5066405;28;20029;-83
2022/01/18 08:04:30;;;;;;;26.55;18.67;;;2.40;69.50;;;;;;5067898;28;20040;-84
2022/01/18 08:06:56;;;;;;;24.00;17.33;;;2.40;69.50;;;;;;5067090;28;20033;-83
2022/01/18 08:09:22;;;;;;;24.58;17.20;;;2.50;69.70;;;;;;5067619;28;20368;-83
2022/01/18 08:11:48;;;;;;;27.02;17.98;;;2.50;69.70;;;;;;5066207;28;20133;-82
2022/01/18 08:14:17;;;;;;;22.38;16.77;;;2.50;69.60;;;;;;5066635;28;20483;-82
2022/01/18 08:16:49;;;;;;;24.10;17.45;;;2.50;69.60;;;;;;5067196;28;20032;-83
2022/01/18 08:19:16;;;;;;;24.52;17.25;;;2.50;69.60;;;;;;5065578;28;20035;-83
2022/01/18 08:21:43;;;;;;;19.70;16.20;;;2.60;70.20;;;;;;5066886;28;20186;-83
2022/01/18 08:24:09;;;;;;;25.88;17.40;;;2.60;69.70;;;;;;5065449;28;20025;-83
2022/01/18 08:26:35;;;;;;;24.48;16.20;;;2.70;69.80;;;;;;5067675;28;20033;-83
2022/01/18 08:29:01;;;;;;;27.20;17.80;;;2.70;69.80;;;;;;5066915;28;20024;-83
2022/01/18 08:31:27;;;;;;;23.73;16.40;;;2.70;69.80;;;;;;5067489;28;20028;-84
2022/01/18 08:33:53;;;;;;;26.98;16.02;;;2.70;69.80;;;;;;5067433;28;20036;-84
2022/01/18 08:36:19;;;;;;;30.00;16.45;;;2.70;69.80;;;;;;5065634;28;20036;-81
2022/01/18 08:38:46;;;;;;;22.50;15.30;;;2.70;69.80;;;;;;5066569;28;20192;-82
2022/01/18 08:41:12;;;;;;;23.42;15.93;;;2.70;69.80;;;;;;5068050;28;20033;-81
2022/01/18 08:43:38;;;;;;;21.88;16.08;;;2.80;70.00;;;;;;5069836;28;20040;-84
2022/01/18 08:46:04;;;;;;;28.85;16.15;;;2.80;70.00;;;;;;5070765;28;20031;-78
2022/01/18 08:48:31;;;;;;;40.95;21.08;;;2.90;70.30;;;;;;5061600;28;20115;-90
2022/01/18 08:50:57;;;;;;;46.90;22.98;;;3.00;71.40;;;;;;5056175;28;20029;-89
2022/01/18 08:53:23;;;;;;;32.00;19.40;;;3.50;72.00;;;;;;5064922;28;20044;-93
2022/01/18 08:55:49;;;;;;;24.95;16.63;;;3.80;71.70;;;;;;5073653;28;20025;-95
2022/01/18 08:58:15;;;;;;;23.10;15.48;;;4.00;71.40;;;;;;5077153;28;20098;-95
2022/01/18 09:00:41;;;;;;;20.67;14.73;;;4.20;71.50;;;;;;5059412;28;20460;-88
2022/01/18 09:03:09;;;;;;;24.98;14.55;;;4.30;71.50;;;;;;5054825;28;20032;-86
2022/01/18 09:05:37;;;;;;;24.60;14.48;;;4.30;71.50;;;;;;5063382;28;20029;-83
2022/01/18 09:08:06;;;;;;;22.45;14.52;;;4.30;71.60;;;;;;5069251;28;20374;-85
2022/01/18 09:10:33;;;;;;;19.85;12.90;;;4.30;71.60;;;;;;5069640;28;20495;-85
2022/01/18 09:12:59;;;;;;;21.60;13.40;;;4.30;71.70;;;;;;5069348;28;20049;-88
2022/01/18 09:15:26;;;;;;;19.80;13.32;;;4.30;71.80;;;;;;5070133;28;20020;-86
2022/01/18 09:17:52;;;;;;;21.50;13.68;;;4.30;71.90;;;;;;5068785;28;20063;-94
2022/01/18 09:20:19;;;;;;;20.10;13.20;;;4.30;72.00;;;;;;5070428;28;20052;-93
2022/01/18 09:22:48;;;;;;;19.83;13.30;;;4.30;72.10;;;;;;5071394;28;20032;-93
2022/01/18 09:25:20;;;;;;;18.92;13.13;;;4.30;72.10;;;;;;5053887;28;20029;-92
2022/01/18 09:27:46;;;;;;;18.67;12.90;;;4.30;72.20;;;;;;5052653;28;20116;-84
2022/01/18 09:30:14;;;;;;;19.52;14.05;;;4.30;72.70;;;;;;5070674;28;20043;-88
2022/01/18 09:32:42;;;;;;;20.15;13.18;;;4.40;72.40;;;;;;5070048;28;20395;-82
2022/01/18 09:35:09;;;;;;;17.80;13.93;;;4.40;72.40;;;;;;5067971;28;20078;-81
2022/01/18 09:37:35;;;;;;;22.25;15.13;;;4.40;72.40;;;;;;5069893;28;20064;-85
2022/01/18 09:40:02;;;;;;;22.52;13.55;;;4.40;72.40;;;;;;5070018;28;20067;-84
2022/01/18 09:42:34;;;;;;;22.27;13.55;;;4.50;72.50;;;;;;5068421;28;20543;-84
2022/01/18 09:45:07;;;;;;;20.67;14.00;;;4.50;72.50;;;;;;5068503;28;20395;-85
2022/01/18 09:47:34;;;;;;;21.58;14.43;;;4.50;72.50;;;;;;5068534;28;20097;-85
2022/01/18 09:50:00;;;;;;;19.35;13.80;;;4.60;72.60;;;;;;5052085;28;20025;-87
2022/01/18 09:52:27;;;;;;;21.42;14.45;;;4.70;72.80;;;;;;5050733;28;20196;-83
2022/01/18 09:54:53;;;;;;;21.10;13.75;;;4.70;72.80;;;;;;5053025;28;20383;-83
2022/01/18 09:57:19;;;;;;;23.08;15.18;;;4.70;72.70;;;;;;5053520;28;20341;-84
2022/01/18 09:59:45;;;;;;;19.60;14.60;;;4.80;72.80;;;;;;5081592;28;20050;-84
2022/01/18 10:02:11;;;;;;;24.73;15.05;;;4.90;73.00;;;;;;5087767;28;20055;-84
2022/01/18 10:04:42;;;;;;;21.77;15.57;;;5.00;73.10;;;;;;5090151;28;20178;-83
2022/01/18 10:07:09;;;;;;;20.98;15.30;;;5.00;73.00;;;;;;5090148;28;20095;-88
2022/01/18 10:09:36;;;;;;;22.70;16.00;;;5.10;73.10;;;;;;5074323;28;20276;-83
2022/01/18 10:12:11;;;;;;;22.75;15.85;;;5.10;73.10;;;;;;5092047;28;20044;-83
2022/01/18 10:15:05;;;;;;;24.40;16.60;;;5.20;73.20;;;;;;5093751;28;20021;-83
2022/01/18 10:17:37;;;;;;;23.08;16.33;;;5.30;73.20;;;;;;5091985;28;20070;-86
2022/01/18 10:20:13;;;;;;;21.13;15.43;;;5.40;73.30;;;;;;5073551;28;20060;-86
2022/01/18 10:22:42;;;;;;;21.48;15.25;;;5.50;73.40;;;;;;5073137;28;20681;-88
2022/01/18 10:25:27;;;;;;;23.23;16.10;;;5.60;73.40;;;;;;5055096;28;20037;-88
2022/01/18 10:27:54;;;;;;;20.48;15.02;;;5.60;73.40;;;;;;5056441;28;20500;-87
2022/01/18 10:30:33;;;;;;;24.08;16.17;;;5.70;73.50;;;;;;5071567;28;20135;-91
2022/01/18 10:33:07;;;;;;;22.10;16.77;;;5.70;73.50;;;;;;5071141;28;20041;-90
2022/01/18 10:35:34;;;;;;;21.27;15.80;;;5.70;73.50;;;;;;5069826;28;20036;-92
2022/01/18 10:38:00;;;;;;;19.95;15.82;;;5.80;73.60;;;;;;5059136;28;20031;-90
2022/01/18 10:40:26;;;;;;;22.33;15.77;;;5.90;73.70;;;;;;5071327;28;20024;-90
2022/01/18 10:42:54;;;;;;;25.67;17.30;;;5.90;73.70;;;;;;5069065;28;20392;-91
2022/01/18 10:45:30;;;;;;;28.63;17.35;;;5.90;73.70;;;;;;5068858;28;20037;-90
2022/01/18 10:48:22;;;;;;;25.77;17.63;;;5.90;73.70;;;;;;5052477;28;20047;-89
2022/01/18 10:50:49;;;;;;;24.53;17.10;;;5.90;73.80;;;;;;5067430;28;20040;-90
2022/01/18 10:53:20;;;;;;;22.25;16.55;;;5.90;73.80;;;;;;5069050;28;20624;-89
2022/01/18 10:55:49;;;;;;;27.52;17.35;;;6.00;74.10;;;;;;5069988;28;20024;-89
2022/01/18 10:58:21;;;;;;;21.88;16.35;;;6.00;74.10;;;;;;5068436;28;20093;-89
2022/01/18 11:00:47;;;;;;;31.13;18.10;;;6.10;74.20;;;;;;5069718;28;20016;-88
2022/01/18 11:03:13;;;;;;;26.45;17.58;;;6.20;74.30;;;;;;5068769;28;20551;-89
2022/01/18 11:05:43;;;;;;;24.15;17.13;;;6.30;74.30;;;;;;5067712;28;20031;-90
2022/01/18 11:08:09;;;;;;;24.63;17.58;;;6.30;74.20;;;;;;5065329;28;20464;-89
2022/01/18 11:10:41;;;;;;;26.30;18.50;;;6.40;74.30;;;;;;5049582;28;20067;-89
2022/01/18 11:13:17;;;;;;;25.85;16.95;;;6.50;74.40;;;;;;5063943;28;20045;-88
2022/01/18 11:15:48;;;;;;;24.80;16.23;;;6.60;74.40;;;;;;5048922;28;20052;-87
2022/01/18 11:18:18;;;;;;;25.02;17.85;;;6.70;74.40;;;;;;5064745;28;20033;-87
2022/01/18 11:20:47;;;;;;;26.70;19.02;;;6.90;74.60;;;;;;5064788;28;20040;-93
2022/01/18 11:23:14;;;;;;;29.48;17.52;;;7.00;74.60;;;;;;5050352;28;20472;-92
2022/01/18 11:25:41;;;;;;;27.77;18.63;;;7.10;74.60;;;;;;5047789;28;20075;-92
2022/01/18 11:28:11;;;;;;;24.25;17.50;;;7.20;74.60;;;;;;5053434;28;20028;-90
2022/01/18 11:30:41;;;;;;;26.30;17.27;;;7.30;74.60;;;;;;5069084;28;20028;-90
2022/01/18 11:33:10;;;;;;;24.73;17.95;;;7.40;74.70;;;;;;5069146;28;20040;-91
2022/01/18 11:35:44;;;;;;;25.45;17.80;;;7.50;74.60;;;;;;5069150;28;20484;-88
2022/01/18 11:38:40;;;;;;;25.98;17.40;;;7.60;74.70;;;;;;5050990;28;20071;-90
2022/01/18 11:41:07;;;;;;;24.30;17.13;;;7.60;74.60;;;;;;5069595;28;20078;-87
2022/01/18 11:43:36;;;;;;;26.77;18.75;;;7.70;74.80;;;;;;5068370;28;20029;-87
2022/01/18 11:46:23;;;;;;;28.02;18.35;;;7.70;74.80;;;;;;5063633;28;20024;-89
2022/01/18 11:49:00;;;;;;;24.58;16.90;;;7.80;75.10;;;;;;5069090;28;20035;-92
2022/01/18 11:51:48;;;;;;;26.40;17.95;;;7.80;75.10;;;;;;5067723;28;20032;-93
2022/01/18 11:57:22;;;;;;;25.25;16.52;;;7.90;75.10;;;;;;5068974;28;20028;-91
2022/01/18 11:59:59;;;;;;;27.05;18.10;;;8.00;75.60;;;;;;5063821;28;20028;-91
2022/01/18 12:02:42;;;;;;;22.83;16.02;;;8.10;75.20;;;;;;5060618;28;20036;-90
2022/01/18 12:05:20;;;;;;;29.00;17.80;;;8.10;75.20;;;;;;5030912;28;20029;-92
2022/01/18 12:07:58;;;;;;;27.65;18.40;;;8.20;75.30;;;;;;5050271;28;20029;-92
2022/01/18 12:10:31;;;;;;;20.48;16.67;;;8.20;75.20;;;;;;5068276;28;20145;-88
2022/01/18 12:13:05;;;;;;;23.52;16.15;;;8.30;75.30;;;;;;5066399;28;20128;-88
2022/01/18 12:15:36;;;;;;;25.40;16.40;;;8.30;75.20;;;;;;5067811;28;20124;-90
2022/01/18 12:18:22;;;;;;;23.58;16.83;;;8.30;75.20;;;;;;5070206;28;20029;-85
2022/01/18 12:21:20;;;;;;;23.38;16.30;;;8.30;75.10;;;;;;5070064;28;20048;-87
2022/01/18 12:23:46;;;;;;;21.13;12.13;;;8.40;75.30;;;;;;5071684;28;20109;-82
2022/01/18 12:26:33;;;;;;;23.00;14.32;;;8.40;75.30;;;;;;5079689;28;20045;-87
2022/01/18 12:29:21;;;;;;;22.23;14.90;;;8.40;75.40;;;;;;5080622;28;20063;-89
2022/01/18 12:34:35;;;;;;;28.80;16.73;;;8.40;75.00;;;;;;5076866;28;20464;-83
2022/01/18 12:37:24;;;;;;;28.67;16.75;;;8.40;75.00;;;;;;5071173;28;20028;-78
2022/01/18 12:39:50;;;;;;;26.08;15.73;;;8.50;75.30;;;;;;5075751;28;20068;-79
2022/01/18 12:45:08;;;;;;;26.50;16.13;;;8.70;75.70;;;;;;5077457;28;20032;-79
2022/01/18 12:47:36;;;;;;;24.65;15.57;;;8.80;75.70;;;;;;5072539;28;20030;-78
2022/01/18 12:50:08;;;;;;;26.67;15.55;;;8.90;75.70;;;;;;5070153;28;20586;-81
2022/01/18 12:52:53;;;;;;;24.05;15.50;;;9.10;75.80;;;;;;5070341;28;20036;-78
2022/01/18 12:55:30;;;;;;;18.95;13.35;;;9.20;75.70;;;;;;5070148;28;20036;-79
2022/01/18 12:58:09;;;;;;;21.27;13.25;;;9.30;76.20;;;;;;5070373;28;20115;-81
2022/01/18 13:00:37;;;;;;;19.33;14.38;;;9.30;75.60;;;;;;5070443;28;20035;-78
2022/01/18 13:03:04;;;;;;;22.08;14.25;;;9.40;75.60;;;;;;5070462;28;20095;-78
2022/01/18 13:05:39;;;;;;;19.13;14.15;;;9.50;75.70;;;;;;5069067;28;20033;-85
2022/01/18 13:08:06;;;;;;;24.00;13.77;;;9.60;75.70;;;;;;5070410;28;20048;-83
2022/01/18 13:10:44;;;;;;;19.60;14.45;;;9.60;75.60;;;;;;5070634;28;20456;-77
2022/01/18 13:13:14;;;;;;;20.80;13.38;;;9.70;75.80;;;;;;5070119;28;20523;-79
2022/01/18 13:15:51;;;;;;;22.33;13.70;;;9.70;75.80;;;;;;5070602;28;20043;-80
2022/01/18 13:26:33;;;;;;;15.40;11.57;;;9.80;76.10;;;;;;5070663;28;20040;-80
2022/01/18 13:29:26;;;;;;;18.15;11.35;;;9.90;76.10;;;;;;5069438;28;20036;-80
2022/01/18 13:32:09;;;;;;;16.38;11.32;;;9.90;76.00;;;;;;5070162;28;20029;-81
2022/01/18 13:34:41;;;;;;;19.27;11.30;;;10.00;76.00;;;;;;5070893;28;20379;-80
2022/01/18 13:37:11;;;;;;;16.93;11.17;;;10.00;75.90;;;;;;5070400;28;20257;-80
2022/01/18 13:39:46;;;;;;;19.67;11.57;;;10.00;75.90;;;;;;5068841;28;20205;-80
2022/01/18 13:42:16;;;;;;;18.05;9.90;;;10.10;76.00;;;;;;5069732;28;20039;-79
2022/01/18 13:45:11;;;;;;;15.35;9.95;;;10.20;76.10;;;;;;5069951;28;20373;-79
2022/01/18 13:47:53;;;;;;;17.48;9.90;;;10.20;76.00;;;;;;5070238;28;20036;-86
2022/01/18 13:50:44;;;;;;;11.75;9.02;;;10.30;76.50;;;;;;5070534;28;20044;-88
2022/01/18 13:53:16;;;;;;;20.63;11.23;;;10.30;75.90;;;;;;5070817;28;20686;-85
2022/01/18 13:55:49;;;;;;;12.88;7.82;;;10.40;75.90;;;;;;5070198;28;20543;-84
2022/01/18 13:58:25;;;;;;;16.10;9.88;;;10.40;75.80;;;;;;5069735;28;20040;-83
2022/01/18 14:00:52;;;;;;;13.45;9.18;;;10.40;75.70;;;;;;5058399;28;20028;-85
2022/01/18 14:03:36;;;;;;;13.40;8.60;;;10.40;75.70;;;;;;5065419;28;20025;-84
2022/01/18 14:06:03;;;;;;;14.18;8.73;;;10.40;75.70;;;;;;5067849;28;20064;-87
2022/01/18 14:08:35;;;;;;;12.13;7.65;;;10.50;75.90;;;;;;5069857;28;20029;-82
2022/01/18 14:11:07;;;;;;;19.50;9.23;;;10.50;75.80;;;;;;5069162;28;20082;-78
2022/01/18 14:13:36;;;;;;;11.65;6.95;;;10.50;75.80;;;;;;5068984;28;20082;-77
2022/01/18 14:16:26;;;;;;;13.52;7.05;;;10.50;75.80;;;;;;5067610;28;20055;-78
2022/01/18 14:19:28;;;;;;;13.65;8.07;;;10.40;75.60;;;;;;5068562;28;20029;-79
2022/01/18 14:21:57;;;;;;;13.05;8.02;;;10.50;75.70;;;;;;5033351;28;20037;-80